Time;durP1;ratioP1;P1;durP2;ratioP2;P2;SDS_P1;SDS_P2;PMS_P1;PMS_P2;Temp;Humidity;BMP_temperature;BMP_pressure;BME280_temperature;BME280_humidity;BME280_pressure;Samples;Min_cycle;Max_cycle;Signal;HPM_P1;HPM_P2
2022/07/05 00:00:17;;;;;;;5.37;3.40;;;16.80;99.90;;;;;;6145971;23;20585;-81
2022/07/05 00:02:44;;;;;;;7.33;3.60;;;16.90;99.90;;;;;;6163142;23;20222;-81
2022/07/05 00:05:11;;;;;;;5.80;3.70;;;16.80;99.90;;;;;;6135857;23;20167;-82
2022/07/05 00:07:38;;;;;;;4.33;3.50;;;16.90;99.90;;;;;;6159368;23;20174;-82
2022/07/05 00:10:05;;;;;;;4.93;4.10;;;16.90;99.90;;;;;;6183177;23;20168;-82
2022/07/05 00:12:33;;;;;;;4.90;4.03;;;16.90;99.90;;;;;;6158414;23;20168;-82
2022/07/05 00:15:00;;;;;;;5.00;4.00;;;16.90;99.90;;;;;;6181870;23;20222;-82
2022/07/05 00:17:27;;;;;;;4.80;4.00;;;16.90;99.90;;;;;;6182080;23;20441;-82
2022/07/05 00:19:54;;;;;;;6.87;4.90;;;16.80;99.90;;;;;;6156614;23;20619;-82
2022/07/05 00:22:21;;;;;;;6.37;4.37;;;16.90;99.90;;;;;;6155946;23;20219;-82
2022/07/05 00:24:55;;;;;;;7.57;4.83;;;16.80;99.90;;;;;;6160992;23;20192;-82
2022/07/05 00:27:22;;;;;;;6.90;4.67;;;16.70;99.90;;;;;;6183052;23;20160;-82
2022/07/05 00:29:49;;;;;;;7.27;5.57;;;16.70;99.90;;;;;;6133311;23;20184;-82
2022/07/05 00:32:16;;;;;;;6.50;5.80;;;16.70;99.90;;;;;;6157935;23;20201;-81
2022/07/05 00:34:43;;;;;;;6.10;5.50;;;16.60;99.90;;;;;;6157125;23;20226;-82
2022/07/05 00:37:10;;;;;;;7.37;5.50;;;16.60;99.90;;;;;;6160222;23;20496;-81
2022/07/05 00:39:37;;;;;;;5.60;5.00;;;16.70;99.90;;;;;;6158946;23;20521;-81
2022/07/05 00:42:04;;;;;;;9.20;5.10;;;16.70;99.90;;;;;;6158009;23;20199;-81
2022/07/05 00:44:37;;;;;;;7.93;5.50;;;16.50;99.90;;;;;;6156488;23;20224;-82
2022/07/05 00:47:05;;;;;;;7.03;5.87;;;16.50;99.90;;;;;;6183657;23;20215;-82
2022/07/05 00:49:34;;;;;;;8.80;5.20;;;16.50;99.90;;;;;;6180693;23;20173;-81
2022/07/05 00:52:02;;;;;;;10.70;6.20;;;16.50;99.90;;;;;;6157433;23;20179;-82
2022/07/05 00:54:45;;;;;;;5.47;4.97;;;16.50;99.90;;;;;;6185888;23;20164;-82
2022/07/05 00:57:14;;;;;;;6.23;5.57;;;16.50;99.90;;;;;;6181820;23;20605;-82
2022/07/05 00:59:42;;;;;;;6.80;5.50;;;16.50;99.90;;;;;;6155610;23;20208;-81
2022/07/05 01:02:08;;;;;;;7.63;5.90;;;16.40;99.90;;;;;;6180977;23;20172;-82
2022/07/05 01:04:36;;;;;;;6.50;5.90;;;16.30;99.90;;;;;;6158051;23;20515;-82
2022/07/05 01:07:03;;;;;;;7.17;6.03;;;16.20;99.90;;;;;;6159601;23;20184;-82
2022/07/05 01:09:33;;;;;;;7.70;6.20;;;16.10;99.90;;;;;;6183802;23;20168;-82
2022/07/05 01:12:00;;;;;;;7.80;5.90;;;16.20;99.90;;;;;;6160002;23;20208;-82
2022/07/05 01:14:27;;;;;;;8.07;6.10;;;16.20;99.90;;;;;;6133781;23;20208;-82
2022/07/05 01:16:54;;;;;;;8.40;5.70;;;16.20;99.90;;;;;;6133572;23;20214;-82
2022/07/05 01:19:22;;;;;;;8.30;6.37;;;16.20;99.90;;;;;;6159765;23;20214;-82
2022/07/05 01:21:50;;;;;;;9.00;5.57;;;16.10;99.90;;;;;;6158896;23;20618;-82
2022/07/05 01:24:18;;;;;;;6.97;5.33;;;16.20;99.90;;;;;;6159979;23;20679;-81
2022/07/05 01:26:48;;;;;;;7.53;5.10;;;16.20;99.90;;;;;;6183689;23;20225;-82
2022/07/05 01:29:16;;;;;;;6.63;5.63;;;16.20;99.90;;;;;;6184015;23;20198;-81
2022/07/05 01:31:43;;;;;;;8.17;5.50;;;16.10;99.90;;;;;;6183003;23;20168;-81
2022/07/05 01:34:11;;;;;;;7.33;5.80;;;16.00;99.90;;;;;;6210639;23;20724;-81
2022/07/05 01:36:38;;;;;;;5.77;5.17;;;16.00;99.90;;;;;;6182154;23;20207;-81
2022/07/05 01:39:07;;;;;;;6.83;5.40;;;15.90;99.90;;;;;;6157705;23;20214;-81
2022/07/05 01:41:34;;;;;;;5.53;4.90;;;15.90;99.90;;;;;;6156335;23;20509;-81
2022/07/05 01:44:02;;;;;;;5.87;4.73;;;16.00;99.90;;;;;;6156028;23;20648;-81
2022/07/05 01:46:33;;;;;;;4.93;4.27;;;15.90;99.90;;;;;;6156680;23;20160;-81
2022/07/05 01:49:04;;;;;;;5.23;4.40;;;15.90;99.90;;;;;;6208013;23;20180;-81
2022/07/05 01:51:41;;;;;;;6.30;4.53;;;16.00;99.90;;;;;;6181528;23;20164;-82
2022/07/05 01:54:08;;;;;;;7.73;5.23;;;16.00;99.90;;;;;;6181031;23;20165;-82
2022/07/05 01:56:37;;;;;;;8.87;4.73;;;16.00;99.90;;;;;;6156213;23;20550;-81
2022/07/05 01:59:05;;;;;;;5.30;4.80;;;16.00;99.90;;;;;;6156328;23;20241;-81
2022/07/05 02:01:37;;;;;;;5.87;4.73;;;16.00;99.90;;;;;;6181516;23;20182;-81
2022/07/05 02:04:07;;;;;;;7.00;5.60;;;15.90;99.90;;;;;;6181850;23;20195;-82
2022/07/05 02:06:35;;;;;;;8.47;5.80;;;15.90;99.90;;;;;;6180987;23;20197;-82
2022/07/05 02:09:04;;;;;;;6.10;5.50;;;15.90;99.90;;;;;;6132520;23;20163;-81
2022/07/05 02:11:31;;;;;;;5.37;4.57;;;15.90;99.90;;;;;;6181784;23;20164;-81
2022/07/05 02:13:58;;;;;;;8.73;5.17;;;15.90;99.90;;;;;;6181184;23;20497;-82
2022/07/05 02:16:25;;;;;;;8.07;5.93;;;15.90;99.90;;;;;;6208857;23;20607;-81
2022/07/05 02:18:53;;;;;;;9.77;6.10;;;15.90;99.90;;;;;;6180633;23;20191;-81
2022/07/05 02:21:20;;;;;;;5.67;5.07;;;15.80;99.90;;;;;;6132157;23;20167;-81
2022/07/05 02:23:47;;;;;;;6.53;5.40;;;15.80;99.90;;;;;;6157600;23;20574;-81
2022/07/05 02:26:14;;;;;;;6.97;6.00;;;15.90;99.90;;;;;;6156545;23;20168;-81
2022/07/05 02:28:41;;;;;;;6.37;5.73;;;16.00;99.90;;;;;;6156361;23;20161;-81
2022/07/05 02:31:08;;;;;;;7.30;6.53;;;15.90;99.90;;;;;;6132996;23;20206;-81
2022/07/05 02:33:35;;;;;;;7.50;5.77;;;15.70;99.90;;;;;;6158232;23;20206;-81
2022/07/05 02:36:08;;;;;;;6.87;5.20;;;15.40;99.90;;;;;;6156792;23;20488;-81
2022/07/05 02:38:35;;;;;;;6.47;5.70;;;15.20;99.90;;;;;;6182490;23;20215;-81
2022/07/05 02:41:09;;;;;;;7.57;5.83;;;15.20;99.90;;;;;;6208834;23;20367;-81
2022/07/05 02:43:37;;;;;;;6.20;5.43;;;15.40;99.90;;;;;;6157379;23;20191;-82
2022/07/05 02:46:05;;;;;;;5.67;5.10;;;15.60;99.90;;;;;;6183418;23;20186;-82
2022/07/05 02:48:33;;;;;;;7.30;5.00;;;15.40;99.90;;;;;;6210572;23;20155;-82
2022/07/05 02:51:01;;;;;;;6.07;5.47;;;15.40;99.90;;;;;;6158025;23;20541;-81
2022/07/05 02:53:28;;;;;;;6.33;5.20;;;15.60;99.90;;;;;;6186060;23;20176;-82
2022/07/05 02:55:55;;;;;;;8.20;5.20;;;15.40;99.90;;;;;;6184532;23;20220;-81
2022/07/05 02:58:22;;;;;;;6.13;5.30;;;15.40;99.90;;;;;;6211814;23;20163;-81
2022/07/05 03:00:49;;;;;;;6.70;5.70;;;15.40;99.90;;;;;;6184827;22;20480;-81
2022/07/05 03:03:16;;;;;;;6.03;5.43;;;15.40;99.90;;;;;;6161106;23;20181;-81
2022/07/05 03:05:43;;;;;;;6.20;5.60;;;15.40;99.90;;;;;;6183733;23;20173;-81
2022/07/05 03:08:10;;;;;;;5.87;5.07;;;15.40;99.90;;;;;;6186097;23;20187;-81
2022/07/05 03:10:38;;;;;;;7.00;5.20;;;15.40;99.90;;;;;;6183823;23;20247;-80
2022/07/05 03:13:06;;;;;;;7.63;4.63;;;15.50;99.90;;;;;;6160052;23;20249;-81
2022/07/05 03:15:33;;;;;;;8.07;5.07;;;15.60;99.90;;;;;;6184060;23;20230;-81
2022/07/05 03:18:00;;;;;;;6.00;5.30;;;15.50;99.90;;;;;;6161786;23;20159;-81
2022/07/05 03:20:26;;;;;;;6.87;5.63;;;15.50;99.90;;;;;;6138128;23;20197;-81
2022/07/05 03:22:53;;;;;;;8.53;4.93;;;15.50;99.90;;;;;;6161977;23;20211;-81
2022/07/05 03:25:20;;;;;;;6.30;5.60;;;15.50;99.90;;;;;;6140885;23;20190;-80
2022/07/05 03:27:47;;;;;;;6.70;5.27;;;15.60;99.90;;;;;;6226801;23;20544;-80
2022/07/05 03:30:14;;;;;;;9.87;5.10;;;15.40;99.90;;;;;;6148374;23;20198;-81
2022/07/05 03:32:41;;;;;;;6.53;5.90;;;15.40;99.90;;;;;;6143915;23;20459;-82
2022/07/05 03:35:08;;;;;;;5.90;5.33;;;15.30;99.90;;;;;;6168727;23;20180;-81
2022/07/05 03:37:35;;;;;;;7.43;5.20;;;15.40;99.90;;;;;;6164231;23;20160;-81
2022/07/05 03:40:03;;;;;;;5.50;5.00;;;15.50;99.90;;;;;;6167312;23;20215;-81
2022/07/05 03:42:30;;;;;;;6.37;5.47;;;15.80;99.90;;;;;;6164066;23;20239;-81
2022/07/05 03:44:57;;;;;;;10.07;5.20;;;15.90;99.90;;;;;;6143334;23;20239;-81
2022/07/05 03:47:24;;;;;;;5.13;4.60;;;16.00;99.90;;;;;;6144037;23;20171;-82
2022/07/05 03:49:51;;;;;;;6.23;5.63;;;15.90;99.90;;;;;;6166755;23;20167;-82
2022/07/05 03:52:17;;;;;;;7.73;5.00;;;15.70;99.90;;;;;;6189504;23;20157;-81
2022/07/05 03:54:51;;;;;;;7.27;5.27;;;15.60;99.90;;;;;;6142865;23;20164;-82
2022/07/05 03:57:18;;;;;;;6.37;5.40;;;15.60;99.90;;;;;;6162739;23;20234;-81
2022/07/05 03:59:45;;;;;;;5.50;4.93;;;15.50;99.90;;;;;;6187087;23;20221;-81
2022/07/05 04:02:12;;;;;;;5.83;4.80;;;15.60;99.90;;;;;;6162923;23;20691;-81
2022/07/05 04:04:39;;;;;;;6.60;5.43;;;15.80;99.90;;;;;;6162740;23;20562;-81
2022/07/05 04:07:06;;;;;;;9.77;5.20;;;15.80;99.90;;;;;;6159789;23;20228;-81
2022/07/05 04:09:33;;;;;;;7.03;5.37;;;15.70;99.90;;;;;;6159807;23;20241;-81
2022/07/05 04:12:01;;;;;;;5.50;5.00;;;15.60;99.90;;;;;;6182303;23;20234;-81
2022/07/05 04:14:28;;;;;;;6.47;5.87;;;15.70;99.90;;;;;;6159101;23;20199;-81
2022/07/05 04:16:55;;;;;;;6.63;5.43;;;15.60;99.90;;;;;;6134592;23;20172;-81
2022/07/05 04:19:22;;;;;;;8.73;5.57;;;15.70;99.90;;;;;;6135505;23;20174;-81
2022/07/05 04:21:49;;;;;;;6.50;5.77;;;15.90;99.90;;;;;;6183961;23;20171;-81
2022/07/05 04:24:16;;;;;;;10.70;6.40;;;16.00;99.90;;;;;;6160053;23;20663;-81
2022/07/05 04:26:42;;;;;;;7.70;5.80;;;16.00;99.90;;;;;;6136803;23;20638;-81
2022/07/05 04:29:09;;;;;;;7.17;5.70;;;16.10;99.90;;;;;;6158903;23;20672;-81
2022/07/05 04:31:36;;;;;;;9.27;5.40;;;16.30;99.90;;;;;;6159088;23;20273;-81
2022/07/05 04:34:03;;;;;;;6.47;5.53;;;16.20;99.90;;;;;;6135579;23;20175;-81
2022/07/05 04:36:30;;;;;;;7.77;5.77;;;16.40;99.90;;;;;;6184066;23;20560;-81
2022/07/05 04:38:57;;;;;;;7.83;5.73;;;16.50;99.90;;;;;;6157886;23;20169;-81
2022/07/05 04:41:24;;;;;;;6.13;5.53;;;16.30;99.90;;;;;;6180386;23;20238;-81
2022/07/05 04:43:51;;;;;;;7.03;5.87;;;16.40;99.90;;;;;;6152794;23;20185;-81
2022/07/05 04:46:18;;;;;;;6.60;5.40;;;16.40;99.90;;;;;;6130472;23;20157;-81
2022/07/05 04:48:45;;;;;;;7.43;5.70;;;16.40;99.90;;;;;;6129249;23;20157;-81
2022/07/05 04:51:12;;;;;;;9.03;6.07;;;16.40;99.90;;;;;;6129891;23;20165;-81
2022/07/05 04:53:39;;;;;;;6.67;6.03;;;16.40;99.90;;;;;;6129733;23;20590;-81
2022/07/05 04:56:06;;;;;;;13.20;6.17;;;16.50;99.90;;;;;;6128299;23;20175;-81
2022/07/05 04:58:33;;;;;;;7.53;5.83;;;16.40;99.90;;;;;;6152902;23;20177;-81
2022/07/05 05:01:00;;;;;;;8.30;6.17;;;16.30;99.90;;;;;;6153372;23;20169;-81
2022/07/05 05:03:27;;;;;;;6.47;5.47;;;16.30;99.90;;;;;;6152370;23;20804;-81
2022/07/05 05:05:54;;;;;;;8.00;5.77;;;16.30;99.90;;;;;;6129217;23;20585;-81
2022/07/05 05:08:21;;;;;;;6.83;6.13;;;16.40;99.90;;;;;;6132729;23;20226;-79
2022/07/05 05:10:48;;;;;;;8.10;6.10;;;16.50;99.90;;;;;;6131907;23;20157;-77
2022/07/05 05:13:15;;;;;;;9.53;6.23;;;16.60;99.90;;;;;;6131717;23;20157;-79
2022/07/05 05:15:42;;;;;;;7.67;6.73;;;16.50;99.90;;;;;;6130637;23;20180;-79
2022/07/05 05:18:09;;;;;;;7.63;5.97;;;16.30;99.90;;;;;;6157894;23;20632;-79
2022/07/05 05:20:36;;;;;;;7.03;5.93;;;16.50;99.90;;;;;;6156076;23;20168;-79
2022/07/05 05:23:06;;;;;;;8.57;6.30;;;16.60;99.90;;;;;;6155163;23;20204;-80
2022/07/05 05:25:34;;;;;;;7.43;6.27;;;16.40;99.90;;;;;;6130614;23;20185;-80
2022/07/05 05:28:02;;;;;;;8.33;6.90;;;16.30;99.90;;;;;;6131195;23;20183;-81
2022/07/05 05:30:29;;;;;;;8.50;6.50;;;16.40;99.90;;;;;;6128712;23;20199;-81
2022/07/05 05:32:56;;;;;;;7.40;6.00;;;16.60;99.90;;;;;;6130493;23;20157;-84
2022/07/05 05:35:23;;;;;;;7.20;6.00;;;16.70;99.90;;;;;;6128530;23;20169;-79
2022/07/05 05:37:52;;;;;;;7.07;6.37;;;16.70;99.90;;;;;;6154268;23;20196;-82
2022/07/05 05:40:21;;;;;;;7.97;6.43;;;16.40;99.90;;;;;;6153738;23;20193;-81
2022/07/05 05:42:48;;;;;;;6.37;5.33;;;16.50;99.90;;;;;;6148945;23;20222;-80
2022/07/05 05:45:16;;;;;;;8.87;6.67;;;16.70;99.90;;;;;;6183467;23;20246;-81
2022/07/05 05:47:45;;;;;;;8.93;6.83;;;16.70;99.90;;;;;;6209189;23;20605;-82
2022/07/05 05:50:12;;;;;;;6.80;6.10;;;16.60;99.90;;;;;;6184757;23;20164;-81
2022/07/05 05:52:38;;;;;;;9.00;6.70;;;16.50;99.90;;;;;;6134852;23;20160;-83
2022/07/05 05:55:06;;;;;;;10.17;6.70;;;16.70;99.90;;;;;;6134085;23;20388;-84
2022/07/05 05:57:36;;;;;;;7.73;6.37;;;16.90;99.90;;;;;;6156990;23;20160;-83
2022/07/05 06:00:05;;;;;;;7.83;7.03;;;17.20;99.90;;;;;;6157328;23;20176;-84
2022/07/05 06:02:32;;;;;;;8.03;6.00;;;17.10;99.90;;;;;;6159056;23;20195;-86
2022/07/05 06:04:59;;;;;;;8.60;6.30;;;17.20;99.90;;;;;;6158062;23;20639;-83
2022/07/05 06:07:26;;;;;;;7.80;6.80;;;17.20;99.90;;;;;;6159431;23;20191;-84
2022/07/05 06:09:53;;;;;;;13.23;5.90;;;17.30;99.90;;;;;;6134744;23;20178;-83
2022/07/05 06:12:20;;;;;;;10.90;7.07;;;17.50;99.90;;;;;;6159075;23;20168;-84
2022/07/05 06:14:47;;;;;;;7.07;5.97;;;17.60;99.90;;;;;;6157207;23;20168;-84
2022/07/05 06:17:14;;;;;;;8.30;6.60;;;17.80;99.90;;;;;;6133426;23;20168;-84
2022/07/05 06:19:41;;;;;;;12.47;7.20;;;17.60;99.90;;;;;;6134800;23;20164;-84
2022/07/05 06:22:08;;;;;;;7.13;5.93;;;17.60;99.90;;;;;;6160602;23;20532;-84
2022/07/05 06:24:35;;;;;;;8.87;5.50;;;17.50;99.90;;;;;;6137091;23;20191;-85
2022/07/05 06:27:02;;;;;;;8.07;5.73;;;17.70;99.90;;;;;;6159159;23;20573;-84
2022/07/05 06:29:29;;;;;;;6.40;5.37;;;17.90;99.90;;;;;;6134491;23;20545;-84
2022/07/05 06:31:56;;;;;;;8.43;5.53;;;17.90;99.90;;;;;;6157721;23;20232;-84
2022/07/05 06:34:23;;;;;;;6.63;4.57;;;17.90;99.90;;;;;;6136624;23;20253;-84
2022/07/05 06:36:50;;;;;;;9.67;5.83;;;18.10;99.90;;;;;;6134341;23;20256;-84
2022/07/05 06:39:17;;;;;;;10.20;5.60;;;18.30;99.90;;;;;;6134389;23;20176;-84
2022/07/05 06:41:44;;;;;;;6.57;4.80;;;18.30;99.90;;;;;;6128245;23;20222;-83
2022/07/05 06:44:11;;;;;;;7.30;4.80;;;18.50;99.90;;;;;;6153871;23;20534;-83
2022/07/05 06:46:58;;;;;;;5.00;4.30;;;18.70;99.90;;;;;;6157468;23;20181;-83
2022/07/05 06:49:25;;;;;;;5.97;4.90;;;18.70;99.90;;;;;;6155383;23;20166;-84
2022/07/05 06:51:52;;;;;;;6.93;4.27;;;18.80;99.90;;;;;;6154786;23;20245;-84
2022/07/05 06:54:19;;;;;;;6.67;4.57;;;18.90;99.90;;;;;;6153393;23;20196;-84
2022/07/05 06:57:05;;;;;;;7.83;4.70;;;19.00;99.90;;;;;;6161329;23;20226;-83
2022/07/05 06:59:52;;;;;;;6.03;4.70;;;19.00;99.90;;;;;;6158951;23;20179;-84
2022/07/05 07:02:24;;;;;;;6.47;4.27;;;19.10;99.90;;;;;;6155504;23;20179;-84
2022/07/05 07:04:51;;;;;;;7.53;5.17;;;19.40;99.90;;;;;;6157252;23;20190;-84
2022/07/05 07:10:20;;;;;;;7.03;5.07;;;18.90;99.90;;;;;;6183690;23;20273;-84
2022/07/05 07:12:54;;;;;;;6.77;4.53;;;18.70;99.90;;;;;;6194591;23;20161;-83
2022/07/05 07:15:21;;;;;;;5.07;3.80;;;18.90;99.90;;;;;;6163626;23;20199;-84
2022/07/05 07:17:48;;;;;;;10.37;4.07;;;19.00;99.90;;;;;;6165010;23;20176;-83
2022/07/05 07:20:15;;;;;;;6.57;3.90;;;19.10;99.90;;;;;;6164532;23;20171;-84
2022/07/05 07:22:42;;;;;;;6.10;4.10;;;19.20;99.90;;;;;;6162493;23;20176;-84
2022/07/05 07:25:11;;;;;;;5.83;4.13;;;19.30;99.90;;;;;;6160792;23;20182;-84
2022/07/05 07:27:49;;;;;;;9.33;4.70;;;19.20;99.90;;;;;;6162786;23;20173;-83
2022/07/05 07:30:18;;;;;;;5.67;4.40;;;19.20;99.90;;;;;;6161111;23;20243;-85
2022/07/05 07:32:46;;;;;;;7.83;4.33;;;19.20;99.90;;;;;;6161871;23;20159;-85
2022/07/05 07:35:13;;;;;;;7.70;5.13;;;19.20;99.90;;;;;;6159613;23;20242;-85
2022/07/05 07:37:40;;;;;;;7.73;5.07;;;19.10;99.90;;;;;;6158072;23;20177;-85
2022/07/05 07:40:08;;;;;;;11.00;5.97;;;19.20;99.90;;;;;;6156958;23;20200;-84
2022/07/05 07:42:36;;;;;;;10.57;5.37;;;19.30;99.90;;;;;;6136941;23;20214;-84
2022/07/05 07:45:03;;;;;;;6.13;4.83;;;19.50;99.90;;;;;;6212146;23;20180;-83
2022/07/05 07:47:35;;;;;;;7.80;5.37;;;19.80;99.90;;;;;;6184394;23;20255;-83
2022/07/05 07:50:03;;;;;;;8.60;5.10;;;19.90;99.90;;;;;;6183391;23;20176;-84
2022/07/05 07:52:30;;;;;;;7.00;4.93;;;19.80;99.90;;;;;;6187516;23;20161;-84
2022/07/05 07:54:57;;;;;;;6.40;5.37;;;19.70;99.90;;;;;;6186847;23;20168;-84
2022/07/05 07:57:24;;;;;;;9.00;5.43;;;19.70;99.90;;;;;;6159789;23;20163;-83
2022/07/05 07:59:51;;;;;;;7.90;4.80;;;19.70;99.90;;;;;;6158397;23;20262;-84
2022/07/05 08:02:21;;;;;;;12.00;6.27;;;19.70;99.90;;;;;;6135442;23;20186;-84
2022/07/05 08:04:48;;;;;;;10.47;6.03;;;19.60;99.90;;;;;;6161438;23;20273;-83
2022/07/05 08:07:17;;;;;;;5.73;4.87;;;19.70;99.90;;;;;;6185458;23;20190;-84
2022/07/05 08:09:44;;;;;;;8.10;4.90;;;20.00;99.90;;;;;;6159953;23;20169;-85
2022/07/05 08:12:11;;;;;;;10.30;6.20;;;20.00;99.90;;;;;;6184938;23;20537;-84
2022/07/05 08:14:38;;;;;;;8.53;5.67;;;20.30;99.90;;;;;;6185497;23;20175;-84
2022/07/05 08:17:08;;;;;;;9.60;5.23;;;20.90;99.90;;;;;;6158553;23;20191;-87
2022/07/05 08:22:22;;;;;;;8.83;6.20;;;21.00;99.90;;;;;;6209764;23;20210;-85
2022/07/05 08:24:49;;;;;;;9.87;5.47;;;20.70;99.90;;;;;;6161264;23;20183;-84
2022/07/05 08:27:16;;;;;;;12.50;6.70;;;20.50;99.90;;;;;;6160856;23;20218;-85
2022/07/05 08:29:44;;;;;;;9.40;5.97;;;20.60;99.90;;;;;;6160113;23;20166;-85
2022/07/05 08:32:11;;;;;;;9.40;5.77;;;20.70;99.90;;;;;;6213472;23;20251;-85
2022/07/05 08:34:38;;;;;;;9.97;6.53;;;21.10;99.90;;;;;;6160423;23;20223;-84
2022/07/05 08:37:06;;;;;;;8.07;6.47;;;21.30;99.90;;;;;;6186024;23;20542;-84
2022/07/05 08:39:40;;;;;;;9.17;5.97;;;20.90;99.90;;;;;;6141796;23;20277;-84
2022/07/05 08:42:11;;;;;;;10.53;6.73;;;21.10;99.90;;;;;;6160917;23;20208;-84
2022/07/05 08:44:41;;;;;;;11.30;6.53;;;21.50;99.90;;;;;;6185336;23;20501;-85
2022/07/05 08:47:11;;;;;;;10.20;6.33;;;21.40;99.90;;;;;;6186528;23;20182;-83
2022/07/05 08:49:42;;;;;;;7.23;5.57;;;21.30;99.90;;;;;;6162192;23;20164;-85
2022/07/05 08:52:11;;;;;;;7.87;5.40;;;21.50;99.90;;;;;;6211886;23;20194;-83
2022/07/05 08:54:39;;;;;;;6.73;4.93;;;22.00;99.90;;;;;;6161403;23;20549;-83
2022/07/05 08:57:06;;;;;;;5.80;4.40;;;22.10;99.90;;;;;;6161720;23;20165;-85
2022/07/05 08:59:39;;;;;;;5.57;4.33;;;21.70;99.90;;;;;;6186467;23;20170;-83
2022/07/05 09:02:10;;;;;;;4.83;3.10;;;21.30;99.90;;;;;;6188903;23;20176;-83
2022/07/05 09:04:45;;;;;;;8.63;3.83;;;21.00;99.90;;;;;;6180162;23;20172;-83
2022/07/05 09:07:16;;;;;;;7.67;3.10;;;21.10;99.90;;;;;;6160828;23;20263;-83
2022/07/05 09:09:48;;;;;;;5.53;3.60;;;21.10;99.90;;;;;;6185451;23;20179;-84
2022/07/05 09:12:15;;;;;;;6.60;3.20;;;20.90;99.90;;;;;;6182494;23;20172;-83
2022/07/05 09:14:50;;;;;;;8.40;3.50;;;20.70;99.90;;;;;;6185819;23;20623;-84
2022/07/05 09:17:17;;;;;;;4.20;3.00;;;20.80;99.90;;;;;;6160008;23;20271;-83
2022/07/05 09:20:11;;;;;;;5.37;3.37;;;20.80;99.90;;;;;;6184229;23;20210;-84
2022/07/05 09:22:47;;;;;;;6.50;3.73;;;20.60;99.90;;;;;;6184012;23;20790;-83
2022/07/05 09:25:20;;;;;;;7.17;3.30;;;21.10;99.90;;;;;;6209229;23;20180;-83
2022/07/05 09:27:52;;;;;;;5.82;2.67;;;21.70;99.90;;;;;;6207404;23;20703;-80
2022/07/05 09:30:41;;;;;;;4.43;1.80;;;21.90;99.90;;;;;;6181354;23;20161;-79
2022/07/05 09:33:10;;;;;;;4.70;2.00;;;21.90;93.80;;;;;;6180808;23;20157;-79
2022/07/05 09:35:39;;;;;;;3.40;1.93;;;22.30;99.20;;;;;;6178473;23;20162;-79
2022/07/05 09:38:19;;;;;;;3.73;1.70;;;23.30;12.20;;;;;;6179232;23;20172;-79
2022/07/05 09:40:55;;;;;;;6.30;2.27;;;22.70;1.00;;;;;;6183780;23;20262;-80
2022/07/05 09:43:27;;;;;;;2.57;1.80;;;21.80;29.30;;;;;;6159163;23;20206;-80
2022/07/05 09:45:59;;;;;;;2.97;1.80;;;21.30;55.70;;;;;;6184932;23;20191;-80
2022/07/05 09:48:28;;;;;;;6.10;2.27;;;21.60;84.70;;;;;;6184226;23;20162;-80
2022/07/05 09:51:06;;;;;;;2.70;2.00;;;21.90;99.90;;;;;;6163147;23;20167;-80
2022/07/05 09:53:55;;;;;;;6.03;2.27;;;22.70;78.40;;;;;;6185051;23;20176;-80
2022/07/05 09:56:29;;;;;;;4.13;2.10;;;23.10;30.00;;;;;;6183673;23;20214;-80
2022/07/05 09:59:13;;;;;;;3.67;1.70;;;22.50;50.70;;;;;;6182891;23;20192;-80
2022/07/05 10:01:40;;;;;;;4.73;1.80;;;22.50;50.50;;;;;;6183329;23;20615;-82
2022/07/05 10:04:08;;;;;;;6.03;1.93;;;22.90;90.10;;;;;;6208801;23;20482;-81
2022/07/05 10:06:36;;;;;;;3.63;1.70;;;23.80;19.60;;;;;;6180348;23;20294;-80
2022/07/05 10:09:04;;;;;;;1.97;1.60;;;24.10;13.30;;;;;;6180871;23;20162;-80
2022/07/05 10:11:34;;;;;;;2.63;1.40;;;24.30;1.00;;;;;;6133918;23;20183;-80
2022/07/05 10:14:06;;;;;;;2.77;1.57;;;24.30;1.00;;;;;;6182804;23;20259;-81
2022/07/05 10:16:33;;;;;;;3.50;1.70;;;24.10;36.00;;;;;;6208647;23;20175;-80
2022/07/05 10:19:00;;;;;;;3.17;1.70;;;24.30;1.00;;;;;;6133406;23;20164;-80
2022/07/05 10:21:27;;;;;;;3.00;1.83;;;24.10;1.00;;;;;;6158097;23;20215;-81
2022/07/05 10:23:55;;;;;;;3.53;3.17;;;24.50;1.00;;;;;;6156927;23;20555;-81
2022/07/05 10:26:24;;;;;;;10.33;5.03;;;25.00;15.90;;;;;;6182362;23;20474;-80
2022/07/05 10:28:53;;;;;;;10.13;4.13;;;24.10;7.00;;;;;;6156089;23;20164;-81
2022/07/05 10:31:30;;;;;;;5.57;4.00;;;23.30;68.00;;;;;;6161048;23;20151;-81
2022/07/05 10:34:07;;;;;;;6.87;4.50;;;23.00;99.90;;;;;;6158204;23;20591;-80
2022/07/05 10:36:54;;;;;;;6.13;4.95;;;22.70;99.90;;;;;;6149136;23;20401;-86
2022/07/05 10:39:25;;;;;;;7.33;4.10;;;22.50;99.90;;;;;;6159306;23;20187;-84
2022/07/05 10:41:54;;;;;;;6.47;4.50;;;22.20;95.00;;;;;;6159722;23;20314;-83
2022/07/05 10:44:39;;;;;;;3.83;3.07;;;22.20;76.40;;;;;;6158641;23;20206;-83
2022/07/05 10:47:11;;;;;;;5.97;3.13;;;22.00;97.90;;;;;;6159850;23;20184;-85
2022/07/05 10:49:39;;;;;;;8.57;3.73;;;21.70;99.90;;;;;;6184255;23;20168;-84
2022/07/05 10:52:23;;;;;;;4.00;3.37;;;21.50;94.30;;;;;;6158846;23;20172;-84
2022/07/05 10:55:18;;;;;;;4.73;2.80;;;21.60;99.90;;;;;;6183497;23;20906;-84
2022/07/05 10:58:18;;;;;;;8.53;3.70;;;22.10;99.90;;;;;;6181776;23;20226;-85
2022/07/05 11:00:48;;;;;;;3.07;2.17;;;22.60;55.20;;;;;;6186837;23;20242;-83
2022/07/05 11:03:35;;;;;;;3.23;2.30;;;23.00;24.50;;;;;;6161248;23;20194;-84
2022/07/05 11:06:04;;;;;;;3.13;1.70;;;23.10;21.60;;;;;;6189832;23;20938;-82
2022/07/05 11:08:57;;;;;;;4.53;1.57;;;22.70;1.00;;;;;;6198695;23;20662;-83
2022/07/05 11:11:50;;;;;;;3.33;1.50;;;22.60;1.00;;;;;;6224070;23;20267;-84
2022/07/05 11:14:38;;;;;;;3.57;1.37;;;22.60;1.00;;;;;;6195895;23;20168;-83
2022/07/05 11:17:08;;;;;;;2.43;1.53;;;23.10;1.00;;;;;;6217732;23;20186;-83
2022/07/05 11:20:02;;;;;;;4.67;1.67;;;23.10;1.00;;;;;;6193463;23;20164;-84
2022/07/05 11:22:30;;;;;;;2.03;1.40;;;23.20;1.00;;;;;;6190425;23;20164;-82
2022/07/05 11:24:57;;;;;;;3.20;1.40;;;23.30;1.00;;;;;;6165820;23;20160;-82
2022/07/05 11:27:24;;;;;;;3.73;1.70;;;23.40;1.00;;;;;;6141810;23;20182;-88
2022/07/05 11:29:56;;;;;;;2.00;1.40;;;23.10;1.00;;;;;;6165057;23;20156;-88
2022/07/05 11:32:35;;;;;;;4.20;1.73;;;22.70;1.00;;;;;;6187623;23;20172;-84
2022/07/05 11:35:33;;;;;;;4.47;2.07;;;22.60;1.00;;;;;;6160122;23;20160;-85
2022/07/05 11:38:03;;;;;;;2.13;1.20;;;22.30;1.00;;;;;;6182839;23;20177;-85
2022/07/05 11:40:51;;;;;;;2.23;1.40;;;22.60;24.40;;;;;;6186057;23;20200;-84
2022/07/05 11:43:29;;;;;;;4.50;1.30;;;22.90;1.00;;;;;;6161304;23;20201;-86
2022/07/05 11:45:59;;;;;;;2.27;1.27;;;23.40;1.00;;;;;;6158162;23;20655;-84
2022/07/05 11:48:29;;;;;;;3.80;1.50;;;23.40;1.00;;;;;;6185025;23;20157;-84
2022/07/05 11:50:56;;;;;;;3.53;1.60;;;23.70;1.00;;;;;;6183371;23;20354;-86
2022/07/05 11:53:29;;;;;;;2.27;1.40;;;23.70;1.00;;;;;;6184120;23;20159;-85
2022/07/05 11:56:16;;;;;;;7.07;2.27;;;23.50;1.00;;;;;;6190622;23;20172;-86
2022/07/05 11:58:43;;;;;;;4.60;1.50;;;23.60;1.00;;;;;;6161610;23;20162;-87
2022/07/05 12:01:10;;;;;;;3.53;1.50;;;23.40;1.00;;;;;;6135274;23;20172;-87
2022/07/05 12:03:39;;;;;;;4.50;1.57;;;23.30;1.00;;;;;;6160892;23;20170;-86
2022/07/05 12:06:13;;;;;;;3.87;1.00;;;23.50;1.00;;;;;;6185532;23;20213;-88
2022/07/05 12:08:40;;;;;;;1.50;1.27;;;24.00;1.00;;;;;;6186965;23;20162;-85
2022/07/05 12:13:56;;;;;;;4.33;1.30;;;24.00;1.00;;;;;;6190277;23;20163;-86
2022/07/05 12:16:25;;;;;;;4.30;1.07;;;24.50;1.00;;;;;;6187270;23;20161;-85
2022/07/05 12:18:55;;;;;;;1.40;1.00;;;24.10;1.00;;;;;;6161914;23;20174;-83
2022/07/05 12:21:23;;;;;;;1.20;0.83;;;23.60;1.00;;;;;;6212265;23;20172;-84
2022/07/05 12:23:51;;;;;;;3.77;1.20;;;23.80;1.00;;;;;;6185869;23;20171;-85
2022/07/05 12:26:19;;;;;;;2.40;1.60;;;23.20;1.00;;;;;;6186288;23;20192;-85
2022/07/05 12:28:47;;;;;;;4.27;1.60;;;23.30;1.00;;;;;;6161280;23;20161;-83
2022/07/05 12:31:22;;;;;;;2.87;1.37;;;22.90;1.00;;;;;;6162164;23;20222;-84
2022/07/05 12:33:51;;;;;;;2.80;1.70;;;22.90;1.00;;;;;;6186733;23;20599;-84
2022/07/05 12:36:20;;;;;;;1.77;1.30;;;23.00;1.00;;;;;;6161238;23;20164;-85
2022/07/05 12:38:47;;;;;;;1.93;1.37;;;23.50;1.00;;;;;;6186681;23;20167;-84
2022/07/05 12:41:22;;;;;;;2.03;1.40;;;23.20;1.00;;;;;;6161613;23;20228;-82
2022/07/05 12:43:49;;;;;;;2.47;1.27;;;23.20;1.00;;;;;;6155562;23;20479;-85
2022/07/05 12:46:16;;;;;;;3.13;1.43;;;23.30;1.00;;;;;;6155105;23;20192;-86
2022/07/05 12:48:45;;;;;;;4.07;1.30;;;23.10;1.00;;;;;;6157051;23;20163;-84
2022/07/05 12:51:12;;;;;;;5.10;1.23;;;22.70;1.00;;;;;;6156159;23;20188;-83
2022/07/05 13:00:15;;;;;;;3.83;1.50;;;22.30;1.00;;;;;;6181487;23;20298;-86
2022/07/05 13:02:45;;;;;;;2.83;1.40;;;22.80;1.00;;;;;;6155533;23;20259;-87
2022/07/05 13:05:21;;;;;;;2.23;1.17;;;22.70;1.00;;;;;;6152851;23;20599;-84
2022/07/05 13:07:52;;;;;;;2.83;1.40;;;22.50;1.00;;;;;;6179776;23;20585;-84
2022/07/05 13:10:28;;;;;;;2.77;1.30;;;22.20;1.00;;;;;;6130125;23;20173;-85
2022/07/05 13:12:54;;;;;;;11.13;3.07;;;22.40;1.00;;;;;;6154767;23;20199;-85
2022/07/05 13:15:21;;;;;;;2.73;0.97;;;22.50;1.00;;;;;;6103033;23;20237;-85